sensor_id;sensor_type;location;lat;lon;timestamp;P1;durP1;ratioP1;P2;durP2;ratioP2
48925;SDS011;39838;59.938;30.642;2023-02-03T00:01:56;13.02;;;7.63;;
48925;SDS011;39838;59.938;30.642;2023-02-03T00:04:23;14.30;;;7.57;;
48925;SDS011;39838;59.938;30.642;2023-02-03T00:06:50;14.50;;;7.63;;
48925;SDS011;39838;59.938;30.642;2023-02-03T00:09:17;14.23;;;7.65;;
48925;SDS011;39838;59.938;30.642;2023-02-03T00:11:46;12.45;;;7.60;;
48925;SDS011;39838;59.938;30.642;2023-02-03T00:14:13;14.40;;;7.50;;
48925;SDS011;39838;59.938;30.642;2023-02-03T00:16:41;15.30;;;7.80;;
48925;SDS011;39838;59.938;30.642;2023-02-03T00:19:10;13.82;;;7.47;;
48925;SDS011;39838;59.938;30.642;2023-02-03T00:21:37;13.02;;;7.85;;
48925;SDS011;39838;59.938;30.642;2023-02-03T00:24:04;16.45;;;7.40;;
48925;SDS011;39838;59.938;30.642;2023-02-03T00:26:32;14.77;;;7.90;;
48925;SDS011;39838;59.938;30.642;2023-02-03T00:28:59;14.73;;;8.13;;
48925;SDS011;39838;59.938;30.642;2023-02-03T00:31:26;15.63;;;8.38;;
48925;SDS011;39838;59.938;30.642;2023-02-03T00:33:54;13.85;;;7.80;;
48925;SDS011;39838;59.938;30.642;2023-02-03T00:36:24;15.07;;;8.25;;
48925;SDS011;39838;59.938;30.642;2023-02-03T00:38:51;15.27;;;7.80;;
48925;SDS011;39838;59.938;30.642;2023-02-03T00:41:19;12.90;;;7.45;;
48925;SDS011;39838;59.938;30.642;2023-02-03T00:43:47;13.80;;;8.20;;
48925;SDS011;39838;59.938;30.642;2023-02-03T00:46:14;13.90;;;7.75;;
48925;SDS011;39838;59.938;30.642;2023-02-03T00:48:42;14.45;;;8.15;;
48925;SDS011;39838;59.938;30.642;2023-02-03T00:51:09;12.02;;;7.60;;
48925;SDS011;39838;59.938;30.642;2023-02-03T00:53:38;13.93;;;7.72;;
48925;SDS011;39838;59.938;30.642;2023-02-03T00:56:05;13.73;;;7.68;;
48925;SDS011;39838;59.938;30.642;2023-02-03T00:58:37;13.07;;;7.05;;
48925;SDS011;39838;59.938;30.642;2023-02-03T01:01:04;15.13;;;8.40;;
48925;SDS011;39838;59.938;30.642;2023-02-03T01:03:32;13.07;;;7.80;;
48925;SDS011;39838;59.938;30.642;2023-02-03T01:06:07;12.20;;;7.32;;
48925;SDS011;39838;59.938;30.642;2023-02-03T01:08:35;13.73;;;7.68;;
48925;SDS011;39838;59.938;30.642;2023-02-03T01:11:08;12.02;;;7.20;;
48925;SDS011;39838;59.938;30.642;2023-02-03T01:13:36;15.98;;;8.32;;
48925;SDS011;39838;59.938;30.642;2023-02-03T01:16:06;13.38;;;7.60;;
48925;SDS011;39838;59.938;30.642;2023-02-03T01:18:33;12.85;;;7.03;;
48925;SDS011;39838;59.938;30.642;2023-02-03T01:21:03;13.25;;;7.40;;
48925;SDS011;39838;59.938;30.642;2023-02-03T01:23:32;14.90;;;7.40;;
48925;SDS011;39838;59.938;30.642;2023-02-03T01:26:01;14.05;;;7.80;;
48925;SDS011;39838;59.938;30.642;2023-02-03T01:28:31;14.13;;;8.30;;
48925;SDS011;39838;59.938;30.642;2023-02-03T01:31:07;14.48;;;7.68;;
48925;SDS011;39838;59.938;30.642;2023-02-03T01:33:35;14.48;;;8.05;;
48925;SDS011;39838;59.938;30.642;2023-02-03T01:36:05;12.80;;;7.38;;
48925;SDS011;39838;59.938;30.642;2023-02-03T01:38:33;14.07;;;7.55;;
48925;SDS011;39838;59.938;30.642;2023-02-03T01:41:01;15.00;;;7.65;;
48925;SDS011;39838;59.938;30.642;2023-02-03T01:43:31;11.07;;;7.00;;
48925;SDS011;39838;59.938;30.642;2023-02-03T01:46:01;13.90;;;7.95;;
48925;SDS011;39838;59.938;30.642;2023-02-03T01:48:31;14.15;;;7.82;;
48925;SDS011;39838;59.938;30.642;2023-02-03T01:50:59;13.57;;;7.32;;
48925;SDS011;39838;59.938;30.642;2023-02-03T01:53:30;13.80;;;7.55;;
48925;SDS011;39838;59.938;30.642;2023-02-03T01:55:58;12.98;;;7.75;;
48925;SDS011;39838;59.938;30.642;2023-02-03T01:58:30;15.23;;;7.68;;
48925;SDS011;39838;59.938;30.642;2023-02-03T02:01:02;13.35;;;7.47;;
48925;SDS011;39838;59.938;30.642;2023-02-03T02:03:30;12.90;;;7.32;;
48925;SDS011;39838;59.938;30.642;2023-02-03T02:06:02;13.55;;;7.78;;
48925;SDS011;39838;59.938;30.642;2023-02-03T02:08:31;14.40;;;7.80;;
48925;SDS011;39838;59.938;30.642;2023-02-03T02:10:59;13.05;;;7.28;;
48925;SDS011;39838;59.938;30.642;2023-02-03T02:13:27;13.20;;;7.43;;
48925;SDS011;39838;59.938;30.642;2023-02-03T02:15:59;14.48;;;7.60;;
48925;SDS011;39838;59.938;30.642;2023-02-03T02:18:39;13.38;;;7.72;;
48925;SDS011;39838;59.938;30.642;2023-02-03T02:21:22;16.40;;;8.15;;
48925;SDS011;39838;59.938;30.642;2023-02-03T02:24:11;14.65;;;8.55;;
48925;SDS011;39838;59.938;30.642;2023-02-03T02:29:49;15.55;;;8.02;;
48925;SDS011;39838;59.938;30.642;2023-02-03T02:32:45;17.55;;;9.65;;
48925;SDS011;39838;59.938;30.642;2023-02-03T02:35:20;15.80;;;8.73;;
48925;SDS011;39838;59.938;30.642;2023-02-03T02:37:58;16.67;;;8.93;;
48925;SDS011;39838;59.938;30.642;2023-02-03T02:40:32;16.08;;;8.93;;
48925;SDS011;39838;59.938;30.642;2023-02-03T02:43:05;17.27;;;9.65;;
48925;SDS011;39838;59.938;30.642;2023-02-03T02:45:38;16.48;;;8.77;;
48925;SDS011;39838;59.938;30.642;2023-02-03T02:48:14;17.83;;;9.73;;
48925;SDS011;39838;59.938;30.642;2023-02-03T02:50:46;18.20;;;10.15;;
48925;SDS011;39838;59.938;30.642;2023-02-03T02:53:17;17.25;;;10.18;;
48925;SDS011;39838;59.938;30.642;2023-02-03T02:55:48;20.38;;;10.40;;
48925;SDS011;39838;59.938;30.642;2023-02-03T02:58:18;18.02;;;10.05;;
48925;SDS011;39838;59.938;30.642;2023-02-03T03:00:46;17.63;;;9.57;;
48925;SDS011;39838;59.938;30.642;2023-02-03T03:03:16;17.13;;;9.85;;
48925;SDS011;39838;59.938;30.642;2023-02-03T03:05:46;18.02;;;9.50;;
48925;SDS011;39838;59.938;30.642;2023-02-03T03:08:17;20.90;;;10.27;;
48925;SDS011;39838;59.938;30.642;2023-02-03T03:10:48;19.00;;;10.15;;
48925;SDS011;39838;59.938;30.642;2023-02-03T03:13:19;19.10;;;10.23;;
48925;SDS011;39838;59.938;30.642;2023-02-03T03:15:50;17.92;;;9.85;;
48925;SDS011;39838;59.938;30.642;2023-02-03T03:18:22;19.20;;;9.73;;
48925;SDS011;39838;59.938;30.642;2023-02-03T03:20:54;20.13;;;10.80;;
48925;SDS011;39838;59.938;30.642;2023-02-03T03:23:24;22.48;;;10.93;;
48925;SDS011;39838;59.938;30.642;2023-02-03T03:25:57;20.92;;;10.65;;
48925;SDS011;39838;59.938;30.642;2023-02-03T03:28:32;22.48;;;11.40;;
48925;SDS011;39838;59.938;30.642;2023-02-03T03:31:06;21.92;;;10.38;;
48925;SDS011;39838;59.938;30.642;2023-02-03T03:33:35;20.58;;;10.88;;
48925;SDS011;39838;59.938;30.642;2023-02-03T03:36:04;19.60;;;10.93;;
48925;SDS011;39838;59.938;30.642;2023-02-03T03:38:38;25.42;;;11.90;;
48925;SDS011;39838;59.938;30.642;2023-02-03T03:41:11;22.63;;;11.20;;
48925;SDS011;39838;59.938;30.642;2023-02-03T03:43:45;20.02;;;11.65;;
48925;SDS011;39838;59.938;30.642;2023-02-03T03:46:16;23.10;;;10.48;;
48925;SDS011;39838;59.938;30.642;2023-02-03T03:48:49;22.00;;;11.73;;
48925;SDS011;39838;59.938;30.642;2023-02-03T03:51:21;23.15;;;11.52;;
48925;SDS011;39838;59.938;30.642;2023-02-03T03:53:51;22.75;;;11.20;;
48925;SDS011;39838;59.938;30.642;2023-02-03T03:56:23;22.20;;;11.10;;
48925;SDS011;39838;59.938;30.642;2023-02-03T03:58:54;21.33;;;10.82;;
48925;SDS011;39838;59.938;30.642;2023-02-03T04:01:24;23.35;;;11.85;;
48925;SDS011;39838;59.938;30.642;2023-02-03T04:03:54;21.98;;;11.60;;
48925;SDS011;39838;59.938;30.642;2023-02-03T04:06:25;24.42;;;12.23;;
48925;SDS011;39838;59.938;30.642;2023-02-03T04:08:53;24.30;;;11.65;;
48925;SDS011;39838;59.938;30.642;2023-02-03T04:11:20;22.13;;;11.07;;
48925;SDS011;39838;59.938;30.642;2023-02-03T04:14:03;20.08;;;11.50;;
48925;SDS011;39838;59.938;30.642;2023-02-03T04:16:31;23.80;;;11.75;;
48925;SDS011;39838;59.938;30.642;2023-02-03T04:18:59;22.30;;;11.45;;
48925;SDS011;39838;59.938;30.642;2023-02-03T04:21:26;25.45;;;11.68;;
48925;SDS011;39838;59.938;30.642;2023-02-03T04:23:54;22.80;;;11.55;;
48925;SDS011;39838;59.938;30.642;2023-02-03T04:26:21;23.35;;;11.10;;
48925;SDS011;39838;59.938;30.642;2023-02-03T04:28:48;22.13;;;11.18;;
48925;SDS011;39838;59.938;30.642;2023-02-03T04:31:16;25.02;;;12.48;;
48925;SDS011;39838;59.938;30.642;2023-02-03T04:33:43;25.20;;;13.18;;
48925;SDS011;39838;59.938;30.642;2023-02-03T04:36:12;23.55;;;12.95;;
48925;SDS011;39838;59.938;30.642;2023-02-03T04:38:40;28.48;;;13.15;;
48925;SDS011;39838;59.938;30.642;2023-02-03T04:41:07;25.85;;;13.23;;
48925;SDS011;39838;59.938;30.642;2023-02-03T04:43:35;28.85;;;13.40;;
48925;SDS011;39838;59.938;30.642;2023-02-03T04:46:02;28.45;;;13.52;;
48925;SDS011;39838;59.938;30.642;2023-02-03T04:48:29;28.15;;;13.65;;
48925;SDS011;39838;59.938;30.642;2023-02-03T04:50:59;27.63;;;12.90;;
48925;SDS011;39838;59.938;30.642;2023-02-03T04:53:29;27.25;;;12.52;;
48925;SDS011;39838;59.938;30.642;2023-02-03T04:55:57;24.30;;;12.18;;
48925;SDS011;39838;59.938;30.642;2023-02-03T04:58:24;24.48;;;11.85;;
48925;SDS011;39838;59.938;30.642;2023-02-03T05:00:52;25.85;;;12.20;;
48925;SDS011;39838;59.938;30.642;2023-02-03T05:03:20;25.00;;;12.50;;
48925;SDS011;39838;59.938;30.642;2023-02-03T05:05:48;24.35;;;11.70;;
48925;SDS011;39838;59.938;30.642;2023-02-03T05:08:15;21.42;;;11.35;;
48925;SDS011;39838;59.938;30.642;2023-02-03T05:10:44;25.33;;;11.98;;
48925;SDS011;39838;59.938;30.642;2023-02-03T05:13:11;22.73;;;10.77;;
48925;SDS011;39838;59.938;30.642;2023-02-03T05:15:39;20.23;;;11.10;;
48925;SDS011;39838;59.938;30.642;2023-02-03T05:18:06;22.63;;;10.93;;
48925;SDS011;39838;59.938;30.642;2023-02-03T05:20:33;25.23;;;11.27;;
48925;SDS011;39838;59.938;30.642;2023-02-03T05:23:00;20.92;;;10.60;;
48925;SDS011;39838;59.938;30.642;2023-02-03T05:25:27;22.48;;;10.63;;
48925;SDS011;39838;59.938;30.642;2023-02-03T05:27:56;23.00;;;10.75;;
48925;SDS011;39838;59.938;30.642;2023-02-03T05:30:24;21.83;;;12.10;;
48925;SDS011;39838;59.938;30.642;2023-02-03T05:32:51;25.63;;;12.10;;
48925;SDS011;39838;59.938;30.642;2023-02-03T05:35:19;23.85;;;12.20;;
48925;SDS011;39838;59.938;30.642;2023-02-03T05:37:46;20.38;;;11.13;;
48925;SDS011;39838;59.938;30.642;2023-02-03T05:40:13;24.13;;;11.77;;
48925;SDS011;39838;59.938;30.642;2023-02-03T05:42:59;26.25;;;12.05;;
48925;SDS011;39838;59.938;30.642;2023-02-03T05:45:26;20.00;;;10.95;;
48925;SDS011;39838;59.938;30.642;2023-02-03T05:47:53;21.48;;;11.35;;
48925;SDS011;39838;59.938;30.642;2023-02-03T05:50:21;21.92;;;11.75;;
48925;SDS011;39838;59.938;30.642;2023-02-03T05:52:48;19.35;;;11.25;;
48925;SDS011;39838;59.938;30.642;2023-02-03T05:55:15;19.85;;;11.43;;
48925;SDS011;39838;59.938;30.642;2023-02-03T05:57:43;19.35;;;11.10;;
48925;SDS011;39838;59.938;30.642;2023-02-03T06:00:12;19.73;;;10.57;;
48925;SDS011;39838;59.938;30.642;2023-02-03T06:02:40;18.58;;;10.75;;
48925;SDS011;39838;59.938;30.642;2023-02-03T06:05:07;19.63;;;11.15;;
48925;SDS011;39838;59.938;30.642;2023-02-03T06:07:35;20.08;;;11.18;;
48925;SDS011;39838;59.938;30.642;2023-02-03T06:10:02;21.05;;;11.10;;
48925;SDS011;39838;59.938;30.642;2023-02-03T06:12:29;21.08;;;11.50;;
48925;SDS011;39838;59.938;30.642;2023-02-03T06:14:56;17.58;;;9.70;;
48925;SDS011;39838;59.938;30.642;2023-02-03T06:17:25;15.95;;;9.38;;
48925;SDS011;39838;59.938;30.642;2023-02-03T06:19:52;17.98;;;9.50;;
48925;SDS011;39838;59.938;30.642;2023-02-03T06:22:20;16.75;;;9.75;;
48925;SDS011;39838;59.938;30.642;2023-02-03T06:24:47;14.10;;;7.75;;
48925;SDS011;39838;59.938;30.642;2023-02-03T06:27:14;16.17;;;8.73;;
48925;SDS011;39838;59.938;30.642;2023-02-03T06:29:42;14.18;;;8.70;;
48925;SDS011;39838;59.938;30.642;2023-02-03T06:32:09;21.60;;;11.23;;
48925;SDS011;39838;59.938;30.642;2023-02-03T06:34:38;20.20;;;11.30;;
48925;SDS011;39838;59.938;30.642;2023-02-03T06:37:05;23.48;;;11.80;;
48925;SDS011;39838;59.938;30.642;2023-02-03T06:39:33;22.83;;;11.40;;
48925;SDS011;39838;59.938;30.642;2023-02-03T06:42:00;19.33;;;10.43;;
48925;SDS011;39838;59.938;30.642;2023-02-03T06:44:27;19.33;;;10.27;;
48925;SDS011;39838;59.938;30.642;2023-02-03T06:46:54;20.88;;;11.73;;
48925;SDS011;39838;59.938;30.642;2023-02-03T06:49:23;23.20;;;12.75;;
48925;SDS011;39838;59.938;30.642;2023-02-03T06:51:52;22.77;;;12.10;;
48925;SDS011;39838;59.938;30.642;2023-02-03T06:54:19;15.27;;;9.88;;
48925;SDS011;39838;59.938;30.642;2023-02-03T06:56:46;13.90;;;8.60;;
48925;SDS011;39838;59.938;30.642;2023-02-03T06:59:13;14.55;;;8.70;;
48925;SDS011;39838;59.938;30.642;2023-02-03T07:01:41;15.30;;;8.60;;
48925;SDS011;39838;59.938;30.642;2023-02-03T07:04:08;14.70;;;8.77;;
48925;SDS011;39838;59.938;30.642;2023-02-03T07:06:35;19.35;;;11.18;;
48925;SDS011;39838;59.938;30.642;2023-02-03T07:09:04;19.88;;;10.93;;
48925;SDS011;39838;59.938;30.642;2023-02-03T07:11:32;25.38;;;10.75;;
48925;SDS011;39838;59.938;30.642;2023-02-03T07:13:59;21.95;;;11.43;;
48925;SDS011;39838;59.938;30.642;2023-02-03T07:16:27;20.73;;;10.95;;
48925;SDS011;39838;59.938;30.642;2023-02-03T07:18:55;14.82;;;10.05;;
48925;SDS011;39838;59.938;30.642;2023-02-03T07:21:22;20.40;;;10.15;;
48925;SDS011;39838;59.938;30.642;2023-02-03T07:23:50;18.63;;;10.73;;
48925;SDS011;39838;59.938;30.642;2023-02-03T07:26:19;21.02;;;11.30;;
48925;SDS011;39838;59.938;30.642;2023-02-03T07:28:47;17.15;;;10.30;;
48925;SDS011;39838;59.938;30.642;2023-02-03T07:31:14;16.98;;;9.93;;
48925;SDS011;39838;59.938;30.642;2023-02-03T07:33:42;18.80;;;10.45;;
48925;SDS011;39838;59.938;30.642;2023-02-03T07:36:09;19.30;;;10.05;;
48925;SDS011;39838;59.938;30.642;2023-02-03T07:38:37;15.20;;;9.55;;
48925;SDS011;39838;59.938;30.642;2023-02-03T07:41:04;15.23;;;9.70;;
48925;SDS011;39838;59.938;30.642;2023-02-03T07:43:33;16.13;;;9.52;;
48925;SDS011;39838;59.938;30.642;2023-02-03T07:46:00;14.63;;;8.95;;
48925;SDS011;39838;59.938;30.642;2023-02-03T07:48:27;15.07;;;9.70;;
48925;SDS011;39838;59.938;30.642;2023-02-03T07:50:55;17.52;;;10.05;;
48925;SDS011;39838;59.938;30.642;2023-02-03T07:53:22;15.48;;;9.35;;
48925;SDS011;39838;59.938;30.642;2023-02-03T07:55:49;13.90;;;9.00;;
48925;SDS011;39838;59.938;30.642;2023-02-03T07:58:16;13.35;;;8.88;;
48925;SDS011;39838;59.938;30.642;2023-02-03T08:00:45;12.95;;;8.95;;
48925;SDS011;39838;59.938;30.642;2023-02-03T08:03:12;12.65;;;9.02;;
48925;SDS011;39838;59.938;30.642;2023-02-03T08:05:39;13.07;;;7.65;;
48925;SDS011;39838;59.938;30.642;2023-02-03T08:08:07;12.32;;;7.78;;
48925;SDS011;39838;59.938;30.642;2023-02-03T08:10:34;11.02;;;7.30;;
48925;SDS011;39838;59.938;30.642;2023-02-03T08:13:01;13.07;;;7.22;;
48925;SDS011;39838;59.938;30.642;2023-02-03T08:15:28;9.23;;;5.93;;
48925;SDS011;39838;59.938;30.642;2023-02-03T08:17:57;11.35;;;7.07;;
48925;SDS011;39838;59.938;30.642;2023-02-03T08:20:24;12.35;;;6.68;;
48925;SDS011;39838;59.938;30.642;2023-02-03T08:22:52;14.13;;;6.72;;
48925;SDS011;39838;59.938;30.642;2023-02-03T08:25:20;12.10;;;6.50;;
48925;SDS011;39838;59.938;30.642;2023-02-03T08:27:47;9.95;;;6.40;;
48925;SDS011;39838;59.938;30.642;2023-02-03T08:30:14;10.82;;;6.18;;
48925;SDS011;39838;59.938;30.642;2023-02-03T08:32:42;8.77;;;5.82;;
48925;SDS011;39838;59.938;30.642;2023-02-03T08:35:10;9.98;;;6.60;;
48925;SDS011;39838;59.938;30.642;2023-02-03T08:37:38;11.75;;;6.65;;
48925;SDS011;39838;59.938;30.642;2023-02-03T08:40:05;9.70;;;6.40;;
48925;SDS011;39838;59.938;30.642;2023-02-03T08:42:33;11.95;;;7.32;;
48925;SDS011;39838;59.938;30.642;2023-02-03T08:45:01;12.45;;;6.97;;
48925;SDS011;39838;59.938;30.642;2023-02-03T08:47:29;14.27;;;6.97;;
48925;SDS011;39838;59.938;30.642;2023-02-03T08:49:56;12.93;;;7.25;;
48925;SDS011;39838;59.938;30.642;2023-02-03T08:52:25;14.25;;;7.60;;
48925;SDS011;39838;59.938;30.642;2023-02-03T08:54:53;12.75;;;7.25;;
48925;SDS011;39838;59.938;30.642;2023-02-03T08:57:22;11.63;;;7.57;;
48925;SDS011;39838;59.938;30.642;2023-02-03T08:59:49;11.73;;;6.95;;
48925;SDS011;39838;59.938;30.642;2023-02-03T09:02:17;12.27;;;7.25;;
48925;SDS011;39838;59.938;30.642;2023-02-03T09:04:45;10.93;;;6.95;;
48925;SDS011;39838;59.938;30.642;2023-02-03T09:07:14;11.98;;;7.15;;
48925;SDS011;39838;59.938;30.642;2023-02-03T09:09:42;14.82;;;7.85;;
48925;SDS011;39838;59.938;30.642;2023-02-03T09:12:10;14.15;;;7.57;;
48925;SDS011;39838;59.938;30.642;2023-02-03T09:14:37;13.55;;;7.07;;
48925;SDS011;39838;59.938;30.642;2023-02-03T09:17:05;11.02;;;7.20;;
48925;SDS011;39838;59.938;30.642;2023-02-03T09:19:33;11.15;;;6.90;;
48925;SDS011;39838;59.938;30.642;2023-02-03T09:22:01;11.15;;;7.15;;
48925;SDS011;39838;59.938;30.642;2023-02-03T09:24:28;13.90;;;7.20;;
48925;SDS011;39838;59.938;30.642;2023-02-03T09:26:56;13.23;;;7.50;;
48925;SDS011;39838;59.938;30.642;2023-02-03T09:29:25;13.27;;;8.00;;
48925;SDS011;39838;59.938;30.642;2023-02-03T09:31:52;15.27;;;7.97;;
48925;SDS011;39838;59.938;30.642;2023-02-03T09:34:20;10.73;;;7.32;;
48925;SDS011;39838;59.938;30.642;2023-02-03T09:36:48;11.38;;;7.15;;
48925;SDS011;39838;59.938;30.642;2023-02-03T09:39:15;13.50;;;7.80;;
48925;SDS011;39838;59.938;30.642;2023-02-03T09:41:50;13.13;;;8.43;;
48925;SDS011;39838;59.938;30.642;2023-02-03T09:44:32;13.25;;;7.28;;
48925;SDS011;39838;59.938;30.642;2023-02-03T09:47:08;12.30;;;8.10;;
48925;SDS011;39838;59.938;30.642;2023-02-03T09:49:39;16.45;;;8.52;;
48925;SDS011;39838;59.938;30.642;2023-02-03T09:52:09;12.15;;;7.50;;
48925;SDS011;39838;59.938;30.642;2023-02-03T09:54:40;12.45;;;8.07;;
48925;SDS011;39838;59.938;30.642;2023-02-03T09:57:17;14.18;;;8.23;;
48925;SDS011;39838;59.938;30.642;2023-02-03T09:59:46;15.82;;;8.50;;
48925;SDS011;39838;59.938;30.642;2023-02-03T10:02:21;14.93;;;8.05;;
48925;SDS011;39838;59.938;30.642;2023-02-03T10:05:06;13.07;;;7.35;;
48925;SDS011;39838;59.938;30.642;2023-02-03T10:07:43;15.45;;;8.20;;
48925;SDS011;39838;59.938;30.642;2023-02-03T10:10:16;13.27;;;8.10;;
48925;SDS011;39838;59.938;30.642;2023-02-03T10:12:58;15.50;;;8.60;;
48925;SDS011;39838;59.938;30.642;2023-02-03T10:15:38;14.95;;;8.77;;
48925;SDS011;39838;59.938;30.642;2023-02-03T10:18:20;22.13;;;9.45;;
48925;SDS011;39838;59.938;30.642;2023-02-03T10:20:52;14.10;;;9.13;;
48925;SDS011;39838;59.938;30.642;2023-02-03T10:23:23;18.83;;;10.10;;
48925;SDS011;39838;59.938;30.642;2023-02-03T10:25:55;16.58;;;9.55;;
48925;SDS011;39838;59.938;30.642;2023-02-03T10:28:28;17.20;;;9.73;;
48925;SDS011;39838;59.938;30.642;2023-02-03T10:30:57;16.48;;;9.93;;
48925;SDS011;39838;59.938;30.642;2023-02-03T10:33:26;16.92;;;9.57;;
48925;SDS011;39838;59.938;30.642;2023-02-03T10:35:56;15.98;;;9.27;;
48925;SDS011;39838;59.938;30.642;2023-02-03T10:38:44;21.85;;;9.63;;
48925;SDS011;39838;59.938;30.642;2023-02-03T10:41:18;16.02;;;9.25;;
48925;SDS011;39838;59.938;30.642;2023-02-03T10:43:49;13.80;;;9.18;;
48925;SDS011;39838;59.938;30.642;2023-02-03T10:46:19;15.68;;;9.05;;
48925;SDS011;39838;59.938;30.642;2023-02-03T10:48:47;14.88;;;9.25;;
48925;SDS011;39838;59.938;30.642;2023-02-03T10:51:20;15.40;;;9.07;;
48925;SDS011;39838;59.938;30.642;2023-02-03T10:53:52;14.77;;;8.75;;
48925;SDS011;39838;59.938;30.642;2023-02-03T10:56:20;13.60;;;8.82;;
48925;SDS011;39838;59.938;30.642;2023-02-03T10:58:52;13.15;;;9.27;;
48925;SDS011;39838;59.938;30.642;2023-02-03T11:01:22;15.85;;;8.40;;
48925;SDS011;39838;59.938;30.642;2023-02-03T11:03:58;14.02;;;8.98;;
48925;SDS011;39838;59.938;30.642;2023-02-03T11:06:28;15.15;;;8.35;;
48925;SDS011;39838;59.938;30.642;2023-02-03T11:08:56;12.93;;;8.07;;
48925;SDS011;39838;59.938;30.642;2023-02-03T11:11:24;14.85;;;8.82;;
48925;SDS011;39838;59.938;30.642;2023-02-03T11:13:55;18.25;;;10.20;;
48925;SDS011;39838;59.938;30.642;2023-02-03T11:16:37;22.08;;;9.80;;
48925;SDS011;39838;59.938;30.642;2023-02-03T11:19:05;16.88;;;10.10;;
48925;SDS011;39838;59.938;30.642;2023-02-03T11:21:40;16.42;;;10.80;;
48925;SDS011;39838;59.938;30.642;2023-02-03T11:24:13;14.98;;;9.50;;
48925;SDS011;39838;59.938;30.642;2023-02-03T11:26:46;20.23;;;10.43;;
48925;SDS011;39838;59.938;30.642;2023-02-03T11:29:20;18.30;;;10.00;;
48925;SDS011;39838;59.938;30.642;2023-02-03T11:31:50;15.32;;;9.45;;
48925;SDS011;39838;59.938;30.642;2023-02-03T11:34:20;15.82;;;9.13;;
48925;SDS011;39838;59.938;30.642;2023-02-03T11:36:50;15.20;;;10.32;;
48925;SDS011;39838;59.938;30.642;2023-02-03T11:39:18;16.60;;;9.48;;
48925;SDS011;39838;59.938;30.642;2023-02-03T11:41:49;15.27;;;10.02;;
48925;SDS011;39838;59.938;30.642;2023-02-03T11:44:19;17.38;;;10.05;;
48925;SDS011;39838;59.938;30.642;2023-02-03T11:46:51;19.23;;;10.57;;
48925;SDS011;39838;59.938;30.642;2023-02-03T11:55:27;20.30;;;10.75;;
48925;SDS011;39838;59.938;30.642;2023-02-03T11:58:12;18.38;;;10.25;;
48925;SDS011;39838;59.938;30.642;2023-02-03T12:00:59;15.55;;;10.05;;
48925;SDS011;39838;59.938;30.642;2023-02-03T12:03:43;19.10;;;10.68;;
48925;SDS011;39838;59.938;30.642;2023-02-03T12:06:27;18.75;;;10.75;;
48925;SDS011;39838;59.938;30.642;2023-02-03T12:09:22;20.50;;;11.48;;
48925;SDS011;39838;59.938;30.642;2023-02-03T12:12:02;21.75;;;11.45;;
48925;SDS011;39838;59.938;30.642;2023-02-03T12:14:48;20.63;;;10.93;;
48925;SDS011;39838;59.938;30.642;2023-02-03T12:17:39;24.40;;;10.90;;
48925;SDS011;39838;59.938;30.642;2023-02-03T12:20:26;21.60;;;10.80;;
48925;SDS011;39838;59.938;30.642;2023-02-03T12:23:11;17.42;;;10.35;;
48925;SDS011;39838;59.938;30.642;2023-02-03T12:25:51;18.20;;;10.35;;
48925;SDS011;39838;59.938;30.642;2023-02-03T12:28:34;20.20;;;11.00;;
48925;SDS011;39838;59.938;30.642;2023-02-03T12:31:13;18.20;;;10.82;;
48925;SDS011;39838;59.938;30.642;2023-02-03T12:33:51;17.52;;;11.05;;
48925;SDS011;39838;59.938;30.642;2023-02-03T12:36:28;19.15;;;11.23;;
48925;SDS011;39838;59.938;30.642;2023-02-03T12:39:05;20.23;;;11.93;;
48925;SDS011;39838;59.938;30.642;2023-02-03T12:41:41;21.15;;;11.45;;
48925;SDS011;39838;59.938;30.642;2023-02-03T12:44:15;18.67;;;10.80;;
48925;SDS011;39838;59.938;30.642;2023-02-03T12:46:48;18.65;;;10.70;;
48925;SDS011;39838;59.938;30.642;2023-02-03T12:49:26;18.85;;;11.35;;
48925;SDS011;39838;59.938;30.642;2023-02-03T12:52:02;19.77;;;11.93;;
48925;SDS011;39838;59.938;30.642;2023-02-03T12:54:39;18.17;;;11.55;;
48925;SDS011;39838;59.938;30.642;2023-02-03T12:57:14;22.50;;;11.40;;
48925;SDS011;39838;59.938;30.642;2023-02-03T12:59:49;17.42;;;11.38;;
48925;SDS011;39838;59.938;30.642;2023-02-03T13:02:25;21.88;;;12.10;;
48925;SDS011;39838;59.938;30.642;2023-02-03T13:04:58;22.33;;;11.43;;
48925;SDS011;39838;59.938;30.642;2023-02-03T13:07:32;19.95;;;12.48;;
48925;SDS011;39838;59.938;30.642;2023-02-03T13:10:05;23.77;;;12.03;;
48925;SDS011;39838;59.938;30.642;2023-02-03T13:12:45;26.35;;;13.02;;
48925;SDS011;39838;59.938;30.642;2023-02-03T13:15:18;23.50;;;12.52;;
48925;SDS011;39838;59.938;30.642;2023-02-03T13:17:52;21.25;;;12.70;;
48925;SDS011;39838;59.938;30.642;2023-02-03T13:20:28;25.73;;;13.30;;
48925;SDS011;39838;59.938;30.642;2023-02-03T13:23:00;22.67;;;12.00;;
48925;SDS011;39838;59.938;30.642;2023-02-03T13:25:32;22.42;;;12.60;;
48925;SDS011;39838;59.938;30.642;2023-02-03T13:28:13;20.10;;;11.48;;
48925;SDS011;39838;59.938;30.642;2023-02-03T13:30:51;21.15;;;11.68;;
48925;SDS011;39838;59.938;30.642;2023-02-03T13:33:47;31.05;;;17.05;;
48925;SDS011;39838;59.938;30.642;2023-02-03T13:36:35;32.05;;;18.52;;
48925;SDS011;39838;59.938;30.642;2023-02-03T13:39:32;31.08;;;15.38;;
48925;SDS011;39838;59.938;30.642;2023-02-03T13:42:13;25.20;;;15.32;;
48925;SDS011;39838;59.938;30.642;2023-02-03T13:44:48;27.95;;;15.38;;
48925;SDS011;39838;59.938;30.642;2023-02-03T13:47:20;23.73;;;13.85;;
48925;SDS011;39838;59.938;30.642;2023-02-03T13:49:51;22.27;;;12.65;;
48925;SDS011;39838;59.938;30.642;2023-02-03T13:52:31;18.77;;;11.90;;
48925;SDS011;39838;59.938;30.642;2023-02-03T13:55:00;20.67;;;11.35;;
48925;SDS011;39838;59.938;30.642;2023-02-03T13:57:38;21.33;;;11.43;;
48925;SDS011;39838;59.938;30.642;2023-02-03T14:00:06;18.38;;;10.35;;
48925;SDS011;39838;59.938;30.642;2023-02-03T14:03:14;23.15;;;10.60;;
48925;SDS011;39838;59.938;30.642;2023-02-03T14:05:43;17.50;;;11.35;;
48925;SDS011;39838;59.938;30.642;2023-02-03T14:23:22;25.33;;;12.55;;
48925;SDS011;39838;59.938;30.642;2023-02-03T14:25:53;23.90;;;12.70;;
48925;SDS011;39838;59.938;30.642;2023-02-03T14:28:23;22.42;;;12.07;;
48925;SDS011;39838;59.938;30.642;2023-02-03T14:31:02;25.67;;;13.00;;
48925;SDS011;39838;59.938;30.642;2023-02-03T14:33:51;22.55;;;12.60;;
48925;SDS011;39838;59.938;30.642;2023-02-03T14:36:28;29.38;;;13.55;;
48925;SDS011;39838;59.938;30.642;2023-02-03T14:39:00;20.08;;;12.75;;
48925;SDS011;39838;59.938;30.642;2023-02-03T14:41:32;24.90;;;12.80;;
48925;SDS011;39838;59.938;30.642;2023-02-03T14:44:12;26.23;;;13.82;;
48925;SDS011;39838;59.938;30.642;2023-02-03T14:49:56;24.33;;;14.57;;
48925;SDS011;39838;59.938;30.642;2023-02-03T14:52:47;24.75;;;14.25;;
48925;SDS011;39838;59.938;30.642;2023-02-03T14:55:27;22.85;;;13.70;;
48925;SDS011;39838;59.938;30.642;2023-02-03T14:58:05;26.50;;;13.85;;
48925;SDS011;39838;59.938;30.642;2023-02-03T15:00:41;25.88;;;13.23;;
48925;SDS011;39838;59.938;30.642;2023-02-03T15:03:23;21.83;;;12.88;;
48925;SDS011;39838;59.938;30.642;2023-02-03T15:08:33;22.55;;;12.95;;
48925;SDS011;39838;59.938;30.642;2023-02-03T15:11:23;25.30;;;14.10;;